sensor_id;sensor_type;location;lat;lon;timestamp;temperature;humidity
33645;DHT22;19986;48.190;16.366;2023-04-24T00:00:16;18.00;99.90
33645;DHT22;19986;48.190;16.366;2023-04-24T00:02:44;18.00;99.90
33645;DHT22;19986;48.190;16.366;2023-04-24T00:05:16;18.00;99.90
33645;DHT22;19986;48.190;16.366;2023-04-24T00:07:45;18.00;99.90
33645;DHT22;19986;48.190;16.366;2023-04-24T00:10:11;18.00;99.90
33645;DHT22;19986;48.190;16.366;2023-04-24T00:12:38;18.00;99.90
33645;DHT22;19986;48.190;16.366;2023-04-24T00:15:04;18.10;99.90
33645;DHT22;19986;48.190;16.366;2023-04-24T00:17:30;18.10;99.90
33645;DHT22;19986;48.190;16.366;2023-04-24T00:19:57;18.10;99.90
33645;DHT22;19986;48.190;16.366;2023-04-24T00:22:28;18.00;99.90
33645;DHT22;19986;48.190;16.366;2023-04-24T00:24:54;18.00;99.90
33645;DHT22;19986;48.190;16.366;2023-04-24T00:27:20;18.00;99.90
33645;DHT22;19986;48.190;16.366;2023-04-24T00:29:46;18.00;99.90
33645;DHT22;19986;48.190;16.366;2023-04-24T00:32:13;18.00;99.90
33645;DHT22;19986;48.190;16.366;2023-04-24T00:34:39;18.00;99.90
33645;DHT22;19986;48.190;16.366;2023-04-24T00:37:05;18.00;99.90
33645;DHT22;19986;48.190;16.366;2023-04-24T00:39:31;18.00;99.90
33645;DHT22;19986;48.190;16.366;2023-04-24T00:41:57;18.00;99.90
33645;DHT22;19986;48.190;16.366;2023-04-24T00:44:23;17.90;99.90
33645;DHT22;19986;48.190;16.366;2023-04-24T00:46:49;18.00;99.90
33645;DHT22;19986;48.190;16.366;2023-04-24T00:49:23;18.00;99.90
33645;DHT22;19986;48.190;16.366;2023-04-24T00:51:49;18.00;99.90
33645;DHT22;19986;48.190;16.366;2023-04-24T00:54:17;18.00;99.90
33645;DHT22;19986;48.190;16.366;2023-04-24T00:56:44;18.00;99.90
33645;DHT22;19986;48.190;16.366;2023-04-24T00:59:11;18.10;99.90
33645;DHT22;19986;48.190;16.366;2023-04-24T01:01:38;18.00;99.90
33645;DHT22;19986;48.190;16.366;2023-04-24T01:04:09;18.00;99.90
33645;DHT22;19986;48.190;16.366;2023-04-24T01:06:40;18.10;99.90
33645;DHT22;19986;48.190;16.366;2023-04-24T01:09:06;18.10;99.90
33645;DHT22;19986;48.190;16.366;2023-04-24T01:11:36;18.10;99.90
33645;DHT22;19986;48.190;16.366;2023-04-24T01:14:02;18.00;99.90
33645;DHT22;19986;48.190;16.366;2023-04-24T01:16:28;17.90;99.90
33645;DHT22;19986;48.190;16.366;2023-04-24T01:18:54;17.90;99.90
33645;DHT22;19986;48.190;16.366;2023-04-24T01:21:21;17.90;99.90
33645;DHT22;19986;48.190;16.366;2023-04-24T01:23:47;17.90;99.90
33645;DHT22;19986;48.190;16.366;2023-04-24T01:26:16;17.90;99.90
33645;DHT22;19986;48.190;16.366;2023-04-24T01:28:42;17.90;99.90
33645;DHT22;19986;48.190;16.366;2023-04-24T01:31:08;17.90;99.90
33645;DHT22;19986;48.190;16.366;2023-04-24T01:33:33;17.90;99.90
33645;DHT22;19986;48.190;16.366;2023-04-24T01:36:00;17.80;99.90
33645;DHT22;19986;48.190;16.366;2023-04-24T01:38:26;17.80;99.90
33645;DHT22;19986;48.190;16.366;2023-04-24T01:40:53;17.70;99.90
33645;DHT22;19986;48.190;16.366;2023-04-24T01:43:19;17.80;99.90
33645;DHT22;19986;48.190;16.366;2023-04-24T01:45:45;17.70;99.90
33645;DHT22;19986;48.190;16.366;2023-04-24T01:48:13;17.70;99.90
33645;DHT22;19986;48.190;16.366;2023-04-24T01:50:39;17.60;99.90
33645;DHT22;19986;48.190;16.366;2023-04-24T01:53:05;17.60;99.90
33645;DHT22;19986;48.190;16.366;2023-04-24T01:55:31;17.60;99.90
33645;DHT22;19986;48.190;16.366;2023-04-24T01:57:59;17.60;99.90
33645;DHT22;19986;48.190;16.366;2023-04-24T02:00:25;17.60;99.90
33645;DHT22;19986;48.190;16.366;2023-04-24T02:02:52;17.50;99.90
33645;DHT22;19986;48.190;16.366;2023-04-24T02:05:18;17.50;99.90
33645;DHT22;19986;48.190;16.366;2023-04-24T02:07:46;17.40;99.90
33645;DHT22;19986;48.190;16.366;2023-04-24T02:10:12;17.20;99.90
33645;DHT22;19986;48.190;16.366;2023-04-24T02:12:37;17.10;99.90
33645;DHT22;19986;48.190;16.366;2023-04-24T02:15:04;16.90;99.90
33645;DHT22;19986;48.190;16.366;2023-04-24T02:17:30;16.80;99.90
33645;DHT22;19986;48.190;16.366;2023-04-24T02:19:56;16.80;99.90
33645;DHT22;19986;48.190;16.366;2023-04-24T02:22:22;16.80;99.90
33645;DHT22;19986;48.190;16.366;2023-04-24T02:24:48;16.80;99.90
33645;DHT22;19986;48.190;16.366;2023-04-24T02:27:14;16.80;99.90
33645;DHT22;19986;48.190;16.366;2023-04-24T02:29:40;16.80;99.90
33645;DHT22;19986;48.190;16.366;2023-04-24T02:32:07;16.70;99.90
33645;DHT22;19986;48.190;16.366;2023-04-24T02:34:38;16.70;99.90
33645;DHT22;19986;48.190;16.366;2023-04-24T02:37:06;16.70;99.90
33645;DHT22;19986;48.190;16.366;2023-04-24T02:39:35;16.60;99.90
33645;DHT22;19986;48.190;16.366;2023-04-24T02:42:02;16.50;99.90
33645;DHT22;19986;48.190;16.366;2023-04-24T02:44:28;16.40;99.90
33645;DHT22;19986;48.190;16.366;2023-04-24T02:46:54;16.40;99.90
33645;DHT22;19986;48.190;16.366;2023-04-24T02:49:21;16.40;99.90
33645;DHT22;19986;48.190;16.366;2023-04-24T02:51:47;16.30;99.90
33645;DHT22;19986;48.190;16.366;2023-04-24T02:54:14;16.20;99.90
33645;DHT22;19986;48.190;16.366;2023-04-24T02:56:40;16.30;99.90
33645;DHT22;19986;48.190;16.366;2023-04-24T02:59:06;16.30;99.90
33645;DHT22;19986;48.190;16.366;2023-04-24T03:01:31;16.30;99.90
33645;DHT22;19986;48.190;16.366;2023-04-24T03:03:57;16.30;99.90
33645;DHT22;19986;48.190;16.366;2023-04-24T03:06:24;16.30;99.90
33645;DHT22;19986;48.190;16.366;2023-04-24T03:08:50;16.30;99.90
33645;DHT22;19986;48.190;16.366;2023-04-24T03:11:16;16.30;99.90
33645;DHT22;19986;48.190;16.366;2023-04-24T03:13:41;16.20;99.90
33645;DHT22;19986;48.190;16.366;2023-04-24T03:16:07;16.30;99.90
33645;DHT22;19986;48.190;16.366;2023-04-24T03:18:33;16.30;99.90
33645;DHT22;19986;48.190;16.366;2023-04-24T03:20:59;16.20;99.90
33645;DHT22;19986;48.190;16.366;2023-04-24T03:23:25;16.10;99.90
33645;DHT22;19986;48.190;16.366;2023-04-24T03:25:51;16.10;99.90
33645;DHT22;19986;48.190;16.366;2023-04-24T03:28:17;16.10;99.90
33645;DHT22;19986;48.190;16.366;2023-04-24T03:30:43;16.10;99.90
33645;DHT22;19986;48.190;16.366;2023-04-24T03:33:09;16.00;99.90
33645;DHT22;19986;48.190;16.366;2023-04-24T03:35:35;16.00;99.90
33645;DHT22;19986;48.190;16.366;2023-04-24T03:38:02;16.00;99.90
33645;DHT22;19986;48.190;16.366;2023-04-24T03:40:30;16.00;99.90
33645;DHT22;19986;48.190;16.366;2023-04-24T03:42:59;16.00;99.90
33645;DHT22;19986;48.190;16.366;2023-04-24T03:45:24;16.00;99.90
33645;DHT22;19986;48.190;16.366;2023-04-24T03:47:50;16.10;99.90
33645;DHT22;19986;48.190;16.366;2023-04-24T03:50:16;16.10;99.90
33645;DHT22;19986;48.190;16.366;2023-04-24T03:52:42;16.20;99.90
33645;DHT22;19986;48.190;16.366;2023-04-24T03:55:08;16.20;99.90
33645;DHT22;19986;48.190;16.366;2023-04-24T03:57:34;16.20;99.90
33645;DHT22;19986;48.190;16.366;2023-04-24T03:59:59;16.20;99.90
33645;DHT22;19986;48.190;16.366;2023-04-24T04:02:25;16.20;99.90
33645;DHT22;19986;48.190;16.366;2023-04-24T04:04:51;16.30;99.90
33645;DHT22;19986;48.190;16.366;2023-04-24T04:07:17;16.40;99.90
33645;DHT22;19986;48.190;16.366;2023-04-24T04:09:43;16.30;99.90
33645;DHT22;19986;48.190;16.366;2023-04-24T04:12:08;16.40;99.90
33645;DHT22;19986;48.190;16.366;2023-04-24T04:14:34;16.40;99.90
33645;DHT22;19986;48.190;16.366;2023-04-24T04:17:00;16.40;99.90
33645;DHT22;19986;48.190;16.366;2023-04-24T04:19:26;16.40;99.90
33645;DHT22;19986;48.190;16.366;2023-04-24T04:21:52;16.50;99.90
33645;DHT22;19986;48.190;16.366;2023-04-24T04:24:19;16.50;99.90
33645;DHT22;19986;48.190;16.366;2023-04-24T04:26:49;16.60;99.90
33645;DHT22;19986;48.190;16.366;2023-04-24T04:29:17;16.60;99.90
33645;DHT22;19986;48.190;16.366;2023-04-24T04:31:46;16.60;99.90
33645;DHT22;19986;48.190;16.366;2023-04-24T04:34:12;16.60;99.90
33645;DHT22;19986;48.190;16.366;2023-04-24T04:36:40;16.60;99.90
33645;DHT22;19986;48.190;16.366;2023-04-24T04:39:07;16.80;99.90
33645;DHT22;19986;48.190;16.366;2023-04-24T04:41:39;16.80;99.90
33645;DHT22;19986;48.190;16.366;2023-04-24T04:44:06;16.80;99.90
33645;DHT22;19986;48.190;16.366;2023-04-24T04:46:32;16.90;99.90
33645;DHT22;19986;48.190;16.366;2023-04-24T04:49:02;16.90;99.90
33645;DHT22;19986;48.190;16.366;2023-04-24T04:51:28;16.90;99.90
33645;DHT22;19986;48.190;16.366;2023-04-24T04:53:54;16.80;99.90
33645;DHT22;19986;48.190;16.366;2023-04-24T04:56:20;16.70;99.90
33645;DHT22;19986;48.190;16.366;2023-04-24T04:58:47;16.70;99.90
33645;DHT22;19986;48.190;16.366;2023-04-24T05:01:13;16.70;99.90
33645;DHT22;19986;48.190;16.366;2023-04-24T05:03:39;16.80;99.90
33645;DHT22;19986;48.190;16.366;2023-04-24T05:06:05;17.00;99.90
33645;DHT22;19986;48.190;16.366;2023-04-24T05:08:31;17.00;99.90
33645;DHT22;19986;48.190;16.366;2023-04-24T05:10:57;17.10;99.90
33645;DHT22;19986;48.190;16.366;2023-04-24T05:13:23;17.10;99.90
33645;DHT22;19986;48.190;16.366;2023-04-24T05:15:50;17.10;99.90
33645;DHT22;19986;48.190;16.366;2023-04-24T05:18:15;17.20;99.90
33645;DHT22;19986;48.190;16.366;2023-04-24T05:20:42;17.30;99.90
33645;DHT22;19986;48.190;16.366;2023-04-24T05:23:09;17.30;99.90
33645;DHT22;19986;48.190;16.366;2023-04-24T05:25:35;17.50;99.90
33645;DHT22;19986;48.190;16.366;2023-04-24T05:28:02;17.50;99.90
33645;DHT22;19986;48.190;16.366;2023-04-24T05:30:28;17.60;99.90
33645;DHT22;19986;48.190;16.366;2023-04-24T05:32:54;17.70;99.90
33645;DHT22;19986;48.190;16.366;2023-04-24T05:35:20;17.80;99.90
33645;DHT22;19986;48.190;16.366;2023-04-24T05:37:46;17.90;99.90
33645;DHT22;19986;48.190;16.366;2023-04-24T05:40:11;17.90;99.90
33645;DHT22;19986;48.190;16.366;2023-04-24T05:42:37;18.00;99.90
33645;DHT22;19986;48.190;16.366;2023-04-24T05:45:04;18.00;99.90
33645;DHT22;19986;48.190;16.366;2023-04-24T05:47:30;18.00;99.90
33645;DHT22;19986;48.190;16.366;2023-04-24T05:49:55;18.10;99.90
33645;DHT22;19986;48.190;16.366;2023-04-24T05:52:21;18.10;99.90
33645;DHT22;19986;48.190;16.366;2023-04-24T05:54:47;18.20;99.90
33645;DHT22;19986;48.190;16.366;2023-04-24T05:57:13;18.20;99.90
33645;DHT22;19986;48.190;16.366;2023-04-24T05:59:39;18.20;99.90
33645;DHT22;19986;48.190;16.366;2023-04-24T06:02:06;18.20;99.90
33645;DHT22;19986;48.190;16.366;2023-04-24T06:04:33;18.30;99.90
33645;DHT22;19986;48.190;16.366;2023-04-24T06:06:59;18.30;99.90
33645;DHT22;19986;48.190;16.366;2023-04-24T06:09:26;18.30;99.90
33645;DHT22;19986;48.190;16.366;2023-04-24T06:11:52;18.30;99.90
33645;DHT22;19986;48.190;16.366;2023-04-24T06:14:19;18.30;99.90
33645;DHT22;19986;48.190;16.366;2023-04-24T06:16:45;18.30;99.90
33645;DHT22;19986;48.190;16.366;2023-04-24T06:19:11;18.40;99.90
33645;DHT22;19986;48.190;16.366;2023-04-24T06:21:37;18.50;99.90
33645;DHT22;19986;48.190;16.366;2023-04-24T06:24:03;18.50;99.90
33645;DHT22;19986;48.190;16.366;2023-04-24T06:26:30;18.60;99.90
33645;DHT22;19986;48.190;16.366;2023-04-24T06:28:56;18.70;99.90
33645;DHT22;19986;48.190;16.366;2023-04-24T06:31:24;18.70;99.90
33645;DHT22;19986;48.190;16.366;2023-04-24T06:33:49;18.80;99.90
33645;DHT22;19986;48.190;16.366;2023-04-24T06:36:16;18.80;99.90
33645;DHT22;19986;48.190;16.366;2023-04-24T06:38:42;18.80;99.90
33645;DHT22;19986;48.190;16.366;2023-04-24T06:41:09;18.80;99.90
33645;DHT22;19986;48.190;16.366;2023-04-24T06:43:35;18.90;99.90
33645;DHT22;19986;48.190;16.366;2023-04-24T06:46:01;19.00;99.90
33645;DHT22;19986;48.190;16.366;2023-04-24T06:48:29;19.10;99.90
33645;DHT22;19986;48.190;16.366;2023-04-24T06:50:55;19.20;99.90
33645;DHT22;19986;48.190;16.366;2023-04-24T06:53:20;19.20;99.90
33645;DHT22;19986;48.190;16.366;2023-04-24T06:55:46;19.20;99.90
33645;DHT22;19986;48.190;16.366;2023-04-24T06:58:12;19.30;99.90
33645;DHT22;19986;48.190;16.366;2023-04-24T07:00:38;19.30;99.90
33645;DHT22;19986;48.190;16.366;2023-04-24T07:03:04;19.40;99.90
33645;DHT22;19986;48.190;16.366;2023-04-24T07:05:31;19.40;99.90
33645;DHT22;19986;48.190;16.366;2023-04-24T07:07:59;19.40;99.90
33645;DHT22;19986;48.190;16.366;2023-04-24T07:10:26;19.30;99.90
33645;DHT22;19986;48.190;16.366;2023-04-24T07:12:55;19.40;99.90
33645;DHT22;19986;48.190;16.366;2023-04-24T07:15:22;19.30;99.90
33645;DHT22;19986;48.190;16.366;2023-04-24T07:17:49;19.30;99.90
33645;DHT22;19986;48.190;16.366;2023-04-24T07:20:15;19.40;99.90
33645;DHT22;19986;48.190;16.366;2023-04-24T07:22:41;19.30;99.90
33645;DHT22;19986;48.190;16.366;2023-04-24T07:25:07;19.30;99.90
33645;DHT22;19986;48.190;16.366;2023-04-24T07:27:34;19.20;99.90
33645;DHT22;19986;48.190;16.366;2023-04-24T07:30:00;19.30;99.90
33645;DHT22;19986;48.190;16.366;2023-04-24T07:32:26;19.30;99.90
33645;DHT22;19986;48.190;16.366;2023-04-24T07:34:52;19.30;99.90
33645;DHT22;19986;48.190;16.366;2023-04-24T07:37:18;19.40;99.90
33645;DHT22;19986;48.190;16.366;2023-04-24T07:39:44;19.40;99.90
33645;DHT22;19986;48.190;16.366;2023-04-24T07:42:10;19.40;99.90
33645;DHT22;19986;48.190;16.366;2023-04-24T07:44:36;19.50;99.90
33645;DHT22;19986;48.190;16.366;2023-04-24T07:47:02;19.50;99.90
33645;DHT22;19986;48.190;16.366;2023-04-24T07:49:28;19.60;99.90
33645;DHT22;19986;48.190;16.366;2023-04-24T07:51:54;19.70;99.90
33645;DHT22;19986;48.190;16.366;2023-04-24T07:54:20;19.70;99.90
33645;DHT22;19986;48.190;16.366;2023-04-24T07:56:46;19.60;99.90
33645;DHT22;19986;48.190;16.366;2023-04-24T07:59:12;19.60;99.90
33645;DHT22;19986;48.190;16.366;2023-04-24T08:01:38;19.60;99.90
33645;DHT22;19986;48.190;16.366;2023-04-24T08:04:04;19.50;99.90
33645;DHT22;19986;48.190;16.366;2023-04-24T08:06:30;19.50;99.90
33645;DHT22;19986;48.190;16.366;2023-04-24T08:08:59;19.50;99.90
33645;DHT22;19986;48.190;16.366;2023-04-24T08:11:25;19.40;99.90
33645;DHT22;19986;48.190;16.366;2023-04-24T08:13:51;19.40;99.90
33645;DHT22;19986;48.190;16.366;2023-04-24T08:16:17;19.20;99.90
33645;DHT22;19986;48.190;16.366;2023-04-24T08:18:43;19.10;99.90
33645;DHT22;19986;48.190;16.366;2023-04-24T08:21:09;19.20;99.90
33645;DHT22;19986;48.190;16.366;2023-04-24T08:23:35;19.30;99.90
33645;DHT22;19986;48.190;16.366;2023-04-24T08:26:00;19.30;99.90
33645;DHT22;19986;48.190;16.366;2023-04-24T08:28:26;19.30;99.90
33645;DHT22;19986;48.190;16.366;2023-04-24T08:30:52;19.40;99.90
33645;DHT22;19986;48.190;16.366;2023-04-24T08:33:23;19.30;99.90
33645;DHT22;19986;48.190;16.366;2023-04-24T08:35:49;19.20;99.90
33645;DHT22;19986;48.190;16.366;2023-04-24T08:38:16;19.20;99.90
33645;DHT22;19986;48.190;16.366;2023-04-24T08:40:42;19.10;99.90
33645;DHT22;19986;48.190;16.366;2023-04-24T08:43:09;18.90;99.90
33645;DHT22;19986;48.190;16.366;2023-04-24T08:45:36;18.80;99.90
33645;DHT22;19986;48.190;16.366;2023-04-24T08:48:02;18.60;99.90
33645;DHT22;19986;48.190;16.366;2023-04-24T08:50:29;18.30;99.90
33645;DHT22;19986;48.190;16.366;2023-04-24T08:52:57;18.10;99.90
33645;DHT22;19986;48.190;16.366;2023-04-24T08:55:24;17.90;99.90
33645;DHT22;19986;48.190;16.366;2023-04-24T08:57:52;17.70;99.90
33645;DHT22;19986;48.190;16.366;2023-04-24T09:00:20;17.50;99.90
33645;DHT22;19986;48.190;16.366;2023-04-24T09:02:49;17.40;99.90
33645;DHT22;19986;48.190;16.366;2023-04-24T09:05:17;17.40;99.90
33645;DHT22;19986;48.190;16.366;2023-04-24T09:07:54;17.10;99.90
33645;DHT22;19986;48.190;16.366;2023-04-24T09:10:22;17.10;99.90
33645;DHT22;19986;48.190;16.366;2023-04-24T09:12:50;17.00;99.90
33645;DHT22;19986;48.190;16.366;2023-04-24T09:15:18;16.80;99.90
33645;DHT22;19986;48.190;16.366;2023-04-24T09:17:44;16.90;99.90
33645;DHT22;19986;48.190;16.366;2023-04-24T09:20:10;17.00;99.90
33645;DHT22;19986;48.190;16.366;2023-04-24T09:22:36;17.00;99.90
33645;DHT22;19986;48.190;16.366;2023-04-24T09:25:04;17.10;99.90
33645;DHT22;19986;48.190;16.366;2023-04-24T09:27:31;17.10;99.90
33645;DHT22;19986;48.190;16.366;2023-04-24T09:29:58;17.10;99.90
33645;DHT22;19986;48.190;16.366;2023-04-24T09:32:24;17.10;99.90
33645;DHT22;19986;48.190;16.366;2023-04-24T09:37:42;17.10;99.90
33645;DHT22;19986;48.190;16.366;2023-04-24T09:40:15;17.10;99.90
33645;DHT22;19986;48.190;16.366;2023-04-24T09:42:56;17.10;99.90
33645;DHT22;19986;48.190;16.366;2023-04-24T09:45:38;17.10;99.90
33645;DHT22;19986;48.190;16.366;2023-04-24T09:48:05;17.00;99.90
33645;DHT22;19986;48.190;16.366;2023-04-24T09:50:32;17.10;99.90
33645;DHT22;19986;48.190;16.366;2023-04-24T09:52:59;17.10;99.90
33645;DHT22;19986;48.190;16.366;2023-04-24T09:55:27;17.20;99.90
33645;DHT22;19986;48.190;16.366;2023-04-24T09:58:02;17.10;99.90
33645;DHT22;19986;48.190;16.366;2023-04-24T10:00:32;17.10;99.90
33645;DHT22;19986;48.190;16.366;2023-04-24T10:03:03;17.20;99.90
33645;DHT22;19986;48.190;16.366;2023-04-24T10:05:29;17.20;99.90
33645;DHT22;19986;48.190;16.366;2023-04-24T10:08:18;17.20;99.90
33645;DHT22;19986;48.190;16.366;2023-04-24T10:10:45;17.20;99.90
33645;DHT22;19986;48.190;16.366;2023-04-24T10:13:13;17.20;99.90
33645;DHT22;19986;48.190;16.366;2023-04-24T10:15:41;17.10;99.90
33645;DHT22;19986;48.190;16.366;2023-04-24T10:18:08;17.20;99.90
33645;DHT22;19986;48.190;16.366;2023-04-24T10:20:35;17.20;99.90
33645;DHT22;19986;48.190;16.366;2023-04-24T10:23:02;17.20;99.90
33645;DHT22;19986;48.190;16.366;2023-04-24T10:25:33;17.10;99.90
33645;DHT22;19986;48.190;16.366;2023-04-24T10:28:00;17.20;99.90
33645;DHT22;19986;48.190;16.366;2023-04-24T10:30:28;17.10;99.90
33645;DHT22;19986;48.190;16.366;2023-04-24T10:32:54;16.90;99.90
33645;DHT22;19986;48.190;16.366;2023-04-24T10:35:22;16.80;99.90
33645;DHT22;19986;48.190;16.366;2023-04-24T10:37:58;16.80;99.90
33645;DHT22;19986;48.190;16.366;2023-04-24T10:40:33;16.90;99.90
33645;DHT22;19986;48.190;16.366;2023-04-24T10:43:02;16.80;99.90
33645;DHT22;19986;48.190;16.366;2023-04-24T10:45:28;16.80;99.90
33645;DHT22;19986;48.190;16.366;2023-04-24T10:48:02;16.70;99.90
33645;DHT22;19986;48.190;16.366;2023-04-24T10:50:29;16.60;99.90
33645;DHT22;19986;48.190;16.366;2023-04-24T10:53:24;16.60;99.90
33645;DHT22;19986;48.190;16.366;2023-04-24T10:56:15;16.60;99.90
33645;DHT22;19986;48.190;16.366;2023-04-24T10:58:43;16.60;99.90
33645;DHT22;19986;48.190;16.366;2023-04-24T11:01:31;16.60;99.90
33645;DHT22;19986;48.190;16.366;2023-04-24T11:03:59;16.70;99.90
33645;DHT22;19986;48.190;16.366;2023-04-24T11:06:34;16.70;99.90
33645;DHT22;19986;48.190;16.366;2023-04-24T11:09:10;16.70;99.90
33645;DHT22;19986;48.190;16.366;2023-04-24T11:11:43;16.80;99.90
33645;DHT22;19986;48.190;16.366;2023-04-24T11:14:14;16.80;99.90
33645;DHT22;19986;48.190;16.366;2023-04-24T11:16:54;16.70;99.90
33645;DHT22;19986;48.190;16.366;2023-04-24T11:19:24;16.70;99.90
33645;DHT22;19986;48.190;16.366;2023-04-24T11:22:04;16.70;99.90
33645;DHT22;19986;48.190;16.366;2023-04-24T11:27:15;16.60;99.90
33645;DHT22;19986;48.190;16.366;2023-04-24T11:29:47;16.70;99.90
33645;DHT22;19986;48.190;16.366;2023-04-24T11:32:35;16.60;99.90
33645;DHT22;19986;48.190;16.366;2023-04-24T11:35:08;16.80;99.90
33645;DHT22;19986;48.190;16.366;2023-04-24T11:37:37;17.00;99.90
33645;DHT22;19986;48.190;16.366;2023-04-24T11:40:06;17.00;99.90
33645;DHT22;19986;48.190;16.366;2023-04-24T11:42:36;17.10;99.90
33645;DHT22;19986;48.190;16.366;2023-04-24T11:45:11;17.10;99.90
33645;DHT22;19986;48.190;16.366;2023-04-24T11:47:37;17.10;99.90
33645;DHT22;19986;48.190;16.366;2023-04-24T11:50:06;17.20;99.90
33645;DHT22;19986;48.190;16.366;2023-04-24T11:52:37;17.40;99.90
33645;DHT22;19986;48.190;16.366;2023-04-24T11:55:06;17.50;99.90
33645;DHT22;19986;48.190;16.366;2023-04-24T11:57:32;17.60;99.90
33645;DHT22;19986;48.190;16.366;2023-04-24T12:00:03;17.60;99.90
33645;DHT22;19986;48.190;16.366;2023-04-24T12:02:31;17.70;99.90
33645;DHT22;19986;48.190;16.366;2023-04-24T12:04:56;17.80;99.90
33645;DHT22;19986;48.190;16.366;2023-04-24T12:07:23;17.90;99.90
33645;DHT22;19986;48.190;16.366;2023-04-24T12:09:56;18.00;99.90
33645;DHT22;19986;48.190;16.366;2023-04-24T12:12:25;18.10;99.90
33645;DHT22;19986;48.190;16.366;2023-04-24T12:14:56;18.20;99.90
33645;DHT22;19986;48.190;16.366;2023-04-24T12:17:32;18.20;99.90
33645;DHT22;19986;48.190;16.366;2023-04-24T12:20:03;18.20;99.90
33645;DHT22;19986;48.190;16.366;2023-04-24T12:25:14;18.50;99.90
33645;DHT22;19986;48.190;16.366;2023-04-24T12:27:40;18.50;99.90
33645;DHT22;19986;48.190;16.366;2023-04-24T12:30:19;18.50;99.90
33645;DHT22;19986;48.190;16.366;2023-04-24T12:32:48;18.50;99.90
33645;DHT22;19986;48.190;16.366;2023-04-24T12:35:19;18.60;99.90
33645;DHT22;19986;48.190;16.366;2023-04-24T12:37:46;18.60;99.90
33645;DHT22;19986;48.190;16.366;2023-04-24T12:40:13;18.60;99.90
33645;DHT22;19986;48.190;16.366;2023-04-24T12:42:57;18.70;99.90
33645;DHT22;19986;48.190;16.366;2023-04-24T12:45:23;18.60;99.90
33645;DHT22;19986;48.190;16.366;2023-04-24T12:47:50;18.50;99.90
33645;DHT22;19986;48.190;16.366;2023-04-24T12:50:16;18.50;99.90
33645;DHT22;19986;48.190;16.366;2023-04-24T12:52:43;18.70;99.90
33645;DHT22;19986;48.190;16.366;2023-04-24T12:55:09;18.70;99.90
33645;DHT22;19986;48.190;16.366;2023-04-24T12:57:36;18.60;99.90
33645;DHT22;19986;48.190;16.366;2023-04-24T13:00:03;18.50;99.90
33645;DHT22;19986;48.190;16.366;2023-04-24T13:02:31;18.50;99.90
33645;DHT22;19986;48.190;16.366;2023-04-24T13:04:58;18.60;99.90
33645;DHT22;19986;48.190;16.366;2023-04-24T13:07:24;18.60;99.90
33645;DHT22;19986;48.190;16.366;2023-04-24T13:09:51;18.60;99.90
33645;DHT22;19986;48.190;16.366;2023-04-24T13:12:17;18.50;99.90
33645;DHT22;19986;48.190;16.366;2023-04-24T13:14:44;18.60;99.90
33645;DHT22;19986;48.190;16.366;2023-04-24T13:17:10;18.60;99.90
33645;DHT22;19986;48.190;16.366;2023-04-24T13:19:38;18.60;99.90
33645;DHT22;19986;48.190;16.366;2023-04-24T13:22:04;18.70;99.90
33645;DHT22;19986;48.190;16.366;2023-04-24T13:24:31;18.70;99.90
33645;DHT22;19986;48.190;16.366;2023-04-24T13:26:58;18.80;99.90
33645;DHT22;19986;48.190;16.366;2023-04-24T13:29:24;18.80;99.90
33645;DHT22;19986;48.190;16.366;2023-04-24T13:31:50;18.70;99.90
33645;DHT22;19986;48.190;16.366;2023-04-24T13:34:17;18.50;99.90
33645;DHT22;19986;48.190;16.366;2023-04-24T13:36:43;18.30;99.90
33645;DHT22;19986;48.190;16.366;2023-04-24T13:39:09;18.30;99.90
33645;DHT22;19986;48.190;16.366;2023-04-24T13:41:36;18.30;99.90
33645;DHT22;19986;48.190;16.366;2023-04-24T13:44:03;18.30;99.90
33645;DHT22;19986;48.190;16.366;2023-04-24T13:46:30;18.40;99.90
33645;DHT22;19986;48.190;16.366;2023-04-24T13:48:56;18.50;99.90
33645;DHT22;19986;48.190;16.366;2023-04-24T13:51:23;18.60;99.90
33645;DHT22;19986;48.190;16.366;2023-04-24T13:53:51;18.60;99.90
33645;DHT22;19986;48.190;16.366;2023-04-24T13:56:17;18.50;99.90
33645;DHT22;19986;48.190;16.366;2023-04-24T13:58:44;18.30;99.90
33645;DHT22;19986;48.190;16.366;2023-04-24T14:01:10;18.20;99.90
33645;DHT22;19986;48.190;16.366;2023-04-24T14:03:37;18.00;99.90
33645;DHT22;19986;48.190;16.366;2023-04-24T14:06:03;17.90;99.90
33645;DHT22;19986;48.190;16.366;2023-04-24T14:08:29;17.80;99.90
33645;DHT22;19986;48.190;16.366;2023-04-24T14:10:55;17.80;99.90
33645;DHT22;19986;48.190;16.366;2023-04-24T14:13:21;17.80;99.90
33645;DHT22;19986;48.190;16.366;2023-04-24T14:15:46;17.70;99.90
33645;DHT22;19986;48.190;16.366;2023-04-24T14:18:12;17.70;99.90
33645;DHT22;19986;48.190;16.366;2023-04-24T14:20:38;17.70;99.90
33645;DHT22;19986;48.190;16.366;2023-04-24T14:23:04;17.70;99.90
33645;DHT22;19986;48.190;16.366;2023-04-24T14:25:30;17.70;99.90
33645;DHT22;19986;48.190;16.366;2023-04-24T14:27:56;17.70;99.90
33645;DHT22;19986;48.190;16.366;2023-04-24T14:30:22;17.70;99.90
33645;DHT22;19986;48.190;16.366;2023-04-24T14:32:48;17.70;99.90
33645;DHT22;19986;48.190;16.366;2023-04-24T14:35:14;17.70;99.90
33645;DHT22;19986;48.190;16.366;2023-04-24T14:37:40;17.70;99.90
33645;DHT22;19986;48.190;16.366;2023-04-24T14:40:07;17.80;99.90
33645;DHT22;19986;48.190;16.366;2023-04-24T14:42:33;17.80;99.90
33645;DHT22;19986;48.190;16.366;2023-04-24T14:44:59;17.70;99.90
33645;DHT22;19986;48.190;16.366;2023-04-24T14:47:25;17.80;99.90
33645;DHT22;19986;48.190;16.366;2023-04-24T14:49:51;17.80;99.90
33645;DHT22;19986;48.190;16.366;2023-04-24T14:52:17;17.70;99.90
33645;DHT22;19986;48.190;16.366;2023-04-24T14:54:43;17.70;99.90
33645;DHT22;19986;48.190;16.366;2023-04-24T14:57:09;17.60;99.90
33645;DHT22;19986;48.190;16.366;2023-04-24T14:59:35;17.50;99.90
33645;DHT22;19986;48.190;16.366;2023-04-24T15:02:01;17.40;99.90
33645;DHT22;19986;48.190;16.366;2023-04-24T15:04:28;17.40;99.90
33645;DHT22;19986;48.190;16.366;2023-04-24T15:06:55;17.30;99.90
33645;DHT22;19986;48.190;16.366;2023-04-24T15:09:21;17.30;99.90
33645;DHT22;19986;48.190;16.366;2023-04-24T15:11:48;17.40;99.90
33645;DHT22;19986;48.190;16.366;2023-04-24T15:14:15;17.40;99.90
33645;DHT22;19986;48.190;16.366;2023-04-24T15:16:41;17.30;99.90
33645;DHT22;19986;48.190;16.366;2023-04-24T15:19:07;17.20;99.90
33645;DHT22;19986;48.190;16.366;2023-04-24T15:21:33;17.10;99.90
33645;DHT22;19986;48.190;16.366;2023-04-24T15:23:59;17.00;99.90